Widner, Indiana
Current Conditions -  °F | °C
As of 6:53 PM on Wednesday 22 Oct 2014 (Local Time) from KLWV Reporting Station
Clear Clear  
Wind Chill: 52°   Ceiling: Unl
Heat Index: 52°   Visibility: 10mi
Dew Point: 43°   Wind: 3mph
Humidity: 71%   Direction: 70°ENE
Pressure: 30.25"   Gusts: NA
Location:  38.8517°N, 87.414°W
Report Text: KLWV 222353Z AUTO 07003KT 10SM CLR 11/06 A3025 RMK AO2 SLP244 T01110061 10167 20111 55002
Loading
Personal Weather Stations






























Interactive Weather Map
Tropical Storm Tracking
New forecast layout! Learn more

10-Day Weather Forecast

Advertisements
Track Severe Weather on mobile